createdAt,value
2023-02-09T00:01:27.976Z,-9.26
2023-02-09T00:03:55.814Z,-9.47
2023-02-09T00:06:24.047Z,-9.53
2023-02-09T00:08:51.959Z,-9.53
2023-02-09T00:11:23.054Z,-9.59
2023-02-09T00:13:50.830Z,-9.57
2023-02-09T00:16:18.692Z,-9.47
2023-02-09T00:18:46.559Z,-9.34
2023-02-09T00:21:14.465Z,-9.23
2023-02-09T00:23:42.310Z,-9.19
2023-02-09T00:26:11.380Z,-9.09
2023-02-09T00:28:41.492Z,-9.19
2023-02-09T00:31:10.510Z,-9.22
2023-02-09T00:33:41.234Z,-9.24
2023-02-09T00:36:11.725Z,-9.27
2023-02-09T00:38:39.739Z,-9.23
2023-02-09T00:41:07.605Z,-9.20
2023-02-09T00:43:35.605Z,-9.15
2023-02-09T00:46:03.689Z,-9.08
2023-02-09T00:48:31.437Z,-9.02
2023-02-09T00:50:59.561Z,-8.97
2023-02-09T00:53:27.566Z,-8.91
2023-02-09T00:55:55.408Z,-8.81
2023-02-09T00:58:23.744Z,-8.77
2023-02-09T01:00:51.573Z,-8.73
2023-02-09T01:03:19.571Z,-8.76
2023-02-09T01:05:47.308Z,-8.76
2023-02-09T01:08:15.054Z,-8.77
2023-02-09T01:10:43.202Z,-8.83
2023-02-09T01:13:11.142Z,-8.93
2023-02-09T01:15:40.529Z,-8.91
2023-02-09T01:18:08.327Z,-8.90
2023-02-09T01:20:36.126Z,-8.89
2023-02-09T01:23:03.966Z,-8.88
2023-02-09T01:25:31.798Z,-8.98
2023-02-09T01:27:59.791Z,-8.94
2023-02-09T01:30:27.645Z,-8.95
2023-02-09T01:32:56.170Z,-8.95
2023-02-09T01:35:23.969Z,-8.94
2023-02-09T01:37:51.737Z,-8.86
2023-02-09T01:40:19.617Z,-8.85
2023-02-09T01:42:47.387Z,-8.88
2023-02-09T01:45:31.116Z,-8.97
2023-02-09T01:48:00.779Z,-9.27
2023-02-09T01:50:29.178Z,-9.52
2023-02-09T01:52:57.529Z,-9.72
2023-02-09T01:55:26.782Z,-9.91
2023-02-09T01:57:57.667Z,-10.08
2023-02-09T02:00:25.423Z,-10.27
2023-02-09T02:03:04.934Z,-10.39
2023-02-09T02:05:35.369Z,-10.48
2023-02-09T02:08:37.778Z,-10.49
2023-02-09T02:11:06.060Z,-10.48
2023-02-09T02:13:33.795Z,-10.46
2023-02-09T02:16:12.706Z,-10.46
2023-02-09T02:18:54.695Z,-10.42
2023-02-09T02:21:28.378Z,-10.42
2023-02-09T02:24:01.981Z,-10.37
2023-02-09T02:26:47.153Z,-10.20
2023-02-09T02:30:03.482Z,-10.00
2023-02-09T02:32:52.784Z,-9.83
2023-02-09T02:35:41.349Z,-9.58
2023-02-09T02:38:27.365Z,-9.42
2023-02-09T02:41:04.274Z,-9.16
2023-02-09T02:43:50.112Z,-8.81
2023-02-09T02:46:56.185Z,-8.40
2023-02-09T02:49:47.147Z,-8.03
2023-02-09T02:52:15.005Z,-7.70
2023-02-09T02:54:46.353Z,-7.40
2023-02-09T02:57:24.644Z,-7.19
2023-02-09T03:00:01.995Z,-7.12
2023-02-09T03:02:39.264Z,-7.11
2023-02-09T03:05:07.239Z,-7.06
2023-02-09T03:07:35.221Z,-6.97
2023-02-09T03:10:03.561Z,-6.90
2023-02-09T03:12:59.202Z,-6.85
2023-02-09T03:15:53.678Z,-6.90
2023-02-09T03:18:59.797Z,-7.02
2023-02-09T03:22:12.371Z,-7.08
2023-02-09T03:24:42.840Z,-7.08
2023-02-09T03:27:23.972Z,-7.07
2023-02-09T03:29:55.274Z,-6.98
2023-02-09T03:32:24.279Z,-6.88
2023-02-09T03:34:53.317Z,-6.80
2023-02-09T03:37:21.024Z,-6.84
2023-02-09T03:39:48.783Z,-6.68
2023-02-09T03:42:16.768Z,-6.43
2023-02-09T03:44:44.704Z,-6.37
2023-02-09T03:47:12.494Z,-6.24
2023-02-09T03:49:41.038Z,-5.99
2023-02-09T03:52:10.602Z,-5.69
2023-02-09T03:54:38.452Z,-5.38
2023-02-09T03:57:06.456Z,-5.15
2023-02-09T03:59:38.078Z,-5.04
2023-02-09T04:02:07.579Z,-4.92
2023-02-09T04:04:35.452Z,-4.73
2023-02-09T04:07:03.604Z,-4.69
2023-02-09T04:09:31.477Z,-4.68
2023-02-09T04:11:59.340Z,-4.60
2023-02-09T04:14:27.182Z,-4.60
2023-02-09T04:16:54.934Z,-4.53
2023-02-09T04:19:22.761Z,-4.40
2023-02-09T04:21:50.534Z,-4.39
2023-02-09T04:24:26.975Z,-4.32
2023-02-09T04:26:54.641Z,-4.28
2023-02-09T04:29:22.374Z,-4.25
2023-02-09T04:31:50.211Z,-4.32
2023-02-09T04:34:18.043Z,-4.36
2023-02-09T04:36:45.797Z,-4.35
2023-02-09T04:39:13.592Z,-4.33
2023-02-09T04:41:41.452Z,-4.30
2023-02-09T04:44:09.386Z,-4.35
2023-02-09T04:46:37.070Z,-4.40
2023-02-09T04:49:04.835Z,-4.39
2023-02-09T04:51:32.736Z,-4.39
2023-02-09T04:54:00.605Z,-4.39
2023-02-09T04:56:28.369Z,-4.44
2023-02-09T04:59:14.874Z,-4.75
2023-02-09T05:01:42.705Z,-5.12
2023-02-09T05:04:10.497Z,-5.21
2023-02-09T05:06:38.390Z,-5.25
2023-02-09T05:09:06.078Z,-5.25
2023-02-09T05:11:33.840Z,-5.24
2023-02-09T05:14:01.582Z,-5.30
2023-02-09T05:16:29.438Z,-5.33
2023-02-09T05:18:57.333Z,-5.24
2023-02-09T05:21:25.120Z,-5.20
2023-02-09T05:23:52.980Z,-5.19
2023-02-09T05:26:20.823Z,-5.19
2023-02-09T05:28:48.655Z,-5.22
2023-02-09T05:31:17.125Z,-5.18
2023-02-09T05:33:45.042Z,-5.17
2023-02-09T05:36:13.249Z,-5.25
2023-02-09T05:38:41.329Z,-5.45
2023-02-09T05:41:11.183Z,-5.57
2023-02-09T05:43:38.975Z,-5.68
2023-02-09T05:46:08.401Z,-5.88
2023-02-09T05:48:36.456Z,-6.12
2023-02-09T05:51:04.274Z,-6.44
2023-02-09T05:53:32.049Z,-6.69
2023-02-09T05:55:59.790Z,-6.76
2023-02-09T05:58:27.638Z,-6.74
2023-02-09T06:00:55.429Z,-6.60
2023-02-09T06:03:23.288Z,-6.58
2023-02-09T06:05:50.969Z,-6.64
2023-02-09T06:08:18.743Z,-6.83
2023-02-09T06:10:46.658Z,-6.89
2023-02-09T06:13:14.884Z,-6.99
2023-02-09T06:15:42.730Z,-7.03
2023-02-09T06:18:10.670Z,-7.00
2023-02-09T06:20:39.974Z,-7.04
2023-02-09T06:23:07.917Z,-7.15
2023-02-09T06:25:35.654Z,-7.27
2023-02-09T06:28:03.476Z,-7.41
2023-02-09T06:30:32.879Z,-7.51
2023-02-09T06:33:00.798Z,-7.67
2023-02-09T06:35:28.634Z,-7.83
2023-02-09T06:37:59.509Z,-7.90
2023-02-09T06:40:27.250Z,-7.94
2023-02-09T06:42:55.119Z,-7.99
2023-02-09T06:45:22.874Z,-7.93
2023-02-09T06:47:50.535Z,-7.79
2023-02-09T06:50:18.966Z,-7.78
2023-02-09T06:52:47.029Z,-7.63
2023-02-09T06:55:14.995Z,-7.55
2023-02-09T06:57:42.723Z,-7.58
2023-02-09T07:00:12.089Z,-7.65
2023-02-09T07:02:41.667Z,-7.69
2023-02-09T07:05:09.635Z,-7.68
2023-02-09T07:07:37.653Z,-7.65
2023-02-09T07:10:06.135Z,-7.54
2023-02-09T07:12:34.092Z,-7.52
2023-02-09T07:15:01.965Z,-7.52
2023-02-09T07:17:30.758Z,-7.57
2023-02-09T07:19:58.580Z,-7.60
2023-02-09T07:22:26.344Z,-7.62
2023-02-09T07:24:54.238Z,-7.53
2023-02-09T07:27:22.106Z,-7.56
2023-02-09T07:29:50.021Z,-7.64
2023-02-09T07:32:17.721Z,-7.68
2023-02-09T07:34:45.531Z,-7.70
2023-02-09T07:37:13.311Z,-7.70
2023-02-09T07:39:41.385Z,-7.74
2023-02-09T07:42:09.320Z,-7.69
2023-02-09T07:44:49.968Z,-7.67
2023-02-09T07:47:17.808Z,-7.70
2023-02-09T07:49:45.725Z,-7.69
2023-02-09T07:52:13.533Z,-7.64
2023-02-09T07:54:41.307Z,-7.56
2023-02-09T07:57:09.102Z,-7.50
2023-02-09T07:59:37.066Z,-7.45
2023-02-09T08:02:05.334Z,-7.55
2023-02-09T08:04:33.153Z,-7.68
2023-02-09T08:07:01.053Z,-7.76
2023-02-09T08:09:29.696Z,-7.85
2023-02-09T08:11:59.322Z,-7.93
2023-02-09T08:14:31.870Z,-7.92
2023-02-09T08:17:31.589Z,-8.00
2023-02-09T08:20:14.030Z,-8.08
2023-02-09T08:22:43.939Z,-8.15
2023-02-09T08:25:12.119Z,-8.22
2023-02-09T08:27:39.951Z,-8.30
2023-02-09T08:30:08.107Z,-8.29
2023-02-09T08:32:36.153Z,-8.30
2023-02-09T08:35:04.257Z,-8.34
2023-02-09T08:37:32.061Z,-8.40
2023-02-09T08:39:59.937Z,-8.48
2023-02-09T08:42:27.707Z,-8.52
2023-02-09T08:44:55.471Z,-8.52
2023-02-09T08:47:23.371Z,-8.54
2023-02-09T08:49:51.456Z,-8.50
2023-02-09T08:52:19.371Z,-8.43
2023-02-09T08:54:47.178Z,-8.37
2023-02-09T08:57:14.971Z,-8.36
2023-02-09T08:59:42.993Z,-8.37
2023-02-09T09:02:10.772Z,-8.36
2023-02-09T09:04:38.479Z,-8.40
2023-02-09T09:07:06.251Z,-8.40
2023-02-09T09:09:34.163Z,-8.38
2023-02-09T09:12:02.061Z,-8.36
2023-02-09T09:14:30.517Z,-8.40
2023-02-09T09:16:59.062Z,-8.46
2023-02-09T09:19:27.376Z,-8.58
2023-02-09T09:21:55.225Z,-8.68
2023-02-09T09:24:24.230Z,-8.76
2023-02-09T09:26:52.216Z,-8.76
2023-02-09T09:29:19.975Z,-8.71
2023-02-09T09:31:47.912Z,-8.64
2023-02-09T09:34:15.684Z,-8.56
2023-02-09T09:36:43.339Z,-8.53
2023-02-09T09:39:11.214Z,-8.52
2023-02-09T09:41:39.093Z,-8.54
2023-02-09T09:44:31.967Z,-8.60
2023-02-09T09:47:01.800Z,-8.67
2023-02-09T09:49:30.347Z,-8.70
2023-02-09T09:52:39.455Z,-8.76
2023-02-09T09:55:08.842Z,-8.84
2023-02-09T09:57:39.259Z,-8.94
2023-02-09T10:00:16.401Z,-9.11
2023-02-09T10:02:44.994Z,-9.21
2023-02-09T10:05:15.705Z,-9.34
2023-02-09T10:07:44.393Z,-9.54
2023-02-09T10:10:18.973Z,-9.72
2023-02-09T10:12:49.247Z,-9.93
2023-02-09T10:15:25.629Z,-10.13
2023-02-09T10:17:53.592Z,-10.33
2023-02-09T10:20:45.822Z,-10.51
2023-02-09T10:23:25.370Z,-10.66
2023-02-09T10:26:01.205Z,-10.79
2023-02-09T10:28:34.026Z,-10.91
2023-02-09T10:31:03.510Z,-11.03
2023-02-09T10:33:41.461Z,-11.15
2023-02-09T10:36:30.097Z,-11.27
2023-02-09T10:39:12.911Z,-11.37
2023-02-09T10:41:42.405Z,-11.45
2023-02-09T10:44:17.429Z,-11.49
2023-02-09T10:46:46.390Z,-11.46
2023-02-09T10:49:53.262Z,-11.43
2023-02-09T10:52:22.626Z,-11.46
2023-02-09T10:54:57.860Z,-11.46
2023-02-09T10:57:30.940Z,-11.46
2023-02-09T11:00:00.745Z,-11.44
2023-02-09T11:02:43.562Z,-11.41
2023-02-09T11:05:23.411Z,-11.38
2023-02-09T11:08:32.069Z,-11.38
2023-02-09T11:11:03.592Z,-11.39
2023-02-09T11:13:32.630Z,-11.38
2023-02-09T11:16:20.861Z,-11.35
2023-02-09T11:18:57.457Z,-11.35
2023-02-09T11:22:01.991Z,-11.36
2023-02-09T11:24:57.296Z,-11.36
2023-02-09T11:27:47.041Z,-11.37
2023-02-09T11:30:30.048Z,-11.39
2023-02-09T11:33:08.522Z,-11.41
2023-02-09T11:35:59.656Z,-11.41
2023-02-09T11:38:36.152Z,-11.45
2023-02-09T11:41:23.925Z,-11.48
2023-02-09T11:43:51.822Z,-11.52
2023-02-09T11:46:20.423Z,-11.53
2023-02-09T11:48:58.190Z,-11.54
2023-02-09T11:51:27.133Z,-11.57
2023-02-09T11:54:09.023Z,-11.62
2023-02-09T11:56:42.301Z,-11.64
2023-02-09T11:59:43.733Z,-11.68
2023-02-09T12:02:40.629Z,-11.73
2023-02-09T12:05:11.678Z,-11.76
2023-02-09T12:08:40.072Z,-11.78
2023-02-09T12:11:29.513Z,-11.81
2023-02-09T12:14:00.043Z,-11.85
2023-02-09T12:16:40.018Z,-11.86
2023-02-09T12:19:23.823Z,-11.87
2023-02-09T12:21:51.738Z,-11.90
2023-02-09T12:24:38.708Z,-11.90
2023-02-09T12:27:27.472Z,-11.91
2023-02-09T12:29:55.326Z,-11.93
2023-02-09T12:32:31.022Z,-11.97
2023-02-09T12:34:58.921Z,-12.03
2023-02-09T12:37:29.091Z,-12.03
2023-02-09T12:40:08.049Z,-12.05
2023-02-09T12:42:59.057Z,-12.10
2023-02-09T12:45:31.255Z,-12.19
2023-02-09T12:48:20.311Z,-12.26
2023-02-09T12:50:56.247Z,-12.33
2023-02-09T12:53:24.232Z,-12.38
2023-02-09T12:56:05.912Z,-12.42
2023-02-09T12:58:38.728Z,-12.46
2023-02-09T13:01:06.953Z,-12.51
2023-02-09T13:03:40.559Z,-12.52
2023-02-09T13:06:09.446Z,-12.56
2023-02-09T13:08:38.865Z,-12.63
2023-02-09T13:11:40.683Z,-12.66
2023-02-09T13:14:10.098Z,-12.76
2023-02-09T13:17:01.466Z,-12.82
2023-02-09T13:19:48.257Z,-12.85
2023-02-09T13:22:19.099Z,-12.90
2023-02-09T13:25:09.538Z,-12.95
2023-02-09T13:27:47.431Z,-12.98
2023-02-09T13:30:35.667Z,-12.96
2023-02-09T13:33:06.162Z,-13.01
2023-02-09T13:35:40.707Z,-13.04
2023-02-09T13:38:21.858Z,-13.04
2023-02-09T13:40:50.427Z,-13.05
2023-02-09T13:43:36.012Z,-13.04
2023-02-09T13:46:04.219Z,-13.04
2023-02-09T13:48:33.276Z,-13.04
2023-02-09T13:51:02.857Z,-13.04
2023-02-09T13:53:31.228Z,-13.06
2023-02-09T13:56:00.415Z,-13.09
2023-02-09T13:58:33.209Z,-13.08
2023-02-09T14:01:04.047Z,-13.11
2023-02-09T14:03:56.655Z,-13.14
2023-02-09T14:06:45.793Z,-13.17
2023-02-09T14:09:20.833Z,-13.18
2023-02-09T14:12:11.380Z,-13.17
2023-02-09T14:15:00.021Z,-13.21
2023-02-09T14:17:32.627Z,-13.17
2023-02-09T14:20:00.582Z,-13.16
2023-02-09T14:22:38.907Z,-13.15
2023-02-09T14:25:15.524Z,-13.17
2023-02-09T14:27:46.782Z,-13.15
2023-02-09T14:30:25.358Z,-13.13
2023-02-09T14:32:57.303Z,-13.14
2023-02-09T14:35:32.228Z,-13.16
2023-02-09T14:38:01.571Z,-13.15
2023-02-09T14:40:30.393Z,-13.14
2023-02-09T14:43:14.052Z,-13.14
2023-02-09T14:45:44.836Z,-13.15
2023-02-09T14:48:23.069Z,-13.15
2023-02-09T14:50:54.256Z,-13.15
2023-02-09T14:53:22.555Z,-13.19
2023-02-09T14:55:50.288Z,-13.18
2023-02-09T14:58:22.914Z,-13.14
2023-02-09T15:00:51.475Z,-13.14
2023-02-09T15:03:19.329Z,-13.13
2023-02-09T15:05:48.585Z,-13.15
2023-02-09T15:08:20.997Z,-13.19
2023-02-09T15:11:23.999Z,-13.23
2023-02-09T15:13:58.035Z,-13.28
2023-02-09T15:16:25.947Z,-13.41
2023-02-09T15:18:53.868Z,-13.47
2023-02-09T15:21:21.541Z,-13.48
2023-02-09T15:23:49.369Z,-13.50
2023-02-09T15:26:17.952Z,-13.50
2023-02-09T15:28:45.942Z,-13.48
2023-02-09T15:31:16.065Z,-13.48
2023-02-09T15:33:44.151Z,-13.43
2023-02-09T15:36:17.345Z,-13.41
2023-02-09T15:38:45.171Z,-13.43
2023-02-09T15:41:31.120Z,-13.46
2023-02-09T15:44:19.264Z,-13.46
2023-02-09T15:47:05.255Z,-13.44
2023-02-09T15:49:32.932Z,-13.42
2023-02-09T15:52:00.846Z,-13.39
2023-02-09T15:54:30.691Z,-13.35
2023-02-09T15:56:59.465Z,-13.31
2023-02-09T15:59:27.340Z,-13.26
2023-02-09T16:01:55.734Z,-13.25
2023-02-09T16:04:24.492Z,-13.22
2023-02-09T16:06:53.452Z,-13.21
2023-02-09T16:09:28.361Z,-13.24
2023-02-09T16:11:56.267Z,-13.22
2023-02-09T16:14:25.840Z,-13.23
2023-02-09T16:16:53.819Z,-13.25
2023-02-09T16:19:21.712Z,-13.27
2023-02-09T16:21:54.729Z,-13.32
2023-02-09T16:24:41.677Z,-13.34
2023-02-09T16:27:23.855Z,-13.38
2023-02-09T16:29:51.724Z,-13.40
2023-02-09T16:32:22.447Z,-13.43
2023-02-09T16:34:50.307Z,-13.47
2023-02-09T16:37:29.085Z,-13.47
2023-02-09T16:39:58.555Z,-13.50
2023-02-09T16:42:26.403Z,-13.50
2023-02-09T16:44:54.330Z,-13.47
2023-02-09T16:47:23.062Z,-13.47
2023-02-09T16:50:05.468Z,-13.44
2023-02-09T16:52:33.148Z,-13.42
2023-02-09T16:55:02.156Z,-13.49
2023-02-09T16:57:30.077Z,-13.47
2023-02-09T16:59:57.912Z,-13.47
2023-02-09T17:02:33.678Z,-13.44
2023-02-09T17:05:02.460Z,-13.42
2023-02-09T17:07:45.459Z,-13.41
2023-02-09T17:10:22.506Z,-13.38
2023-02-09T17:12:52.601Z,-13.39
2023-02-09T17:15:30.002Z,-13.36
2023-02-09T17:18:02.398Z,-13.40
2023-02-09T17:20:42.694Z,-13.39
2023-02-09T17:23:23.157Z,-13.42
2023-02-09T17:25:51.993Z,-13.47
2023-02-09T17:28:20.221Z,-13.51
2023-02-09T17:30:50.006Z,-13.56
2023-02-09T17:33:31.243Z,-13.62
2023-02-09T17:38:47.417Z,-13.76
2023-02-09T17:41:18.710Z,-13.78
2023-02-09T17:43:46.876Z,-13.82
2023-02-09T17:46:16.845Z,-13.87
2023-02-09T17:48:45.797Z,-13.93
2023-02-09T17:51:27.069Z,-13.90
2023-02-09T17:53:55.902Z,-13.92
2023-02-09T17:56:23.777Z,-13.92
2023-02-09T17:58:51.623Z,-13.96
2023-02-09T18:01:27.444Z,-13.97
2023-02-09T18:03:56.635Z,-14.01
2023-02-09T18:06:34.626Z,-14.02
2023-02-09T18:09:03.699Z,-14.05
2023-02-09T18:12:02.384Z,-14.06
2023-02-09T18:14:32.033Z,-14.11
2023-02-09T18:16:59.992Z,-14.16
2023-02-09T18:19:27.900Z,-14.18
2023-02-09T18:21:57.669Z,-14.21
2023-02-09T18:24:27.523Z,-14.24
2023-02-09T18:26:55.815Z,-14.26
2023-02-09T18:29:24.129Z,-14.29
2023-02-09T18:31:52.017Z,-14.30
2023-02-09T18:34:20.239Z,-14.36
2023-02-09T18:36:48.072Z,-14.39
2023-02-09T18:39:16.366Z,-14.42
2023-02-09T18:41:45.792Z,-14.47
2023-02-09T18:44:13.751Z,-14.52
2023-02-09T18:46:43.063Z,-14.56
2023-02-09T18:49:12.513Z,-14.60
2023-02-09T18:51:40.427Z,-14.62
2023-02-09T18:54:08.252Z,-14.63
2023-02-09T18:56:36.045Z,-14.68
2023-02-09T18:59:03.892Z,-14.68
2023-02-09T19:01:31.730Z,-14.72
2023-02-09T19:03:59.463Z,-14.74
2023-02-09T19:06:27.512Z,-14.78
2023-02-09T19:08:55.260Z,-14.80
2023-02-09T19:11:23.190Z,-14.82
2023-02-09T19:14:09.251Z,-14.88
2023-02-09T19:16:38.101Z,-14.99
2023-02-09T19:19:05.992Z,-15.02
2023-02-09T19:21:33.677Z,-15.08
2023-02-09T19:24:02.829Z,-15.13
2023-02-09T19:26:30.584Z,-15.20
2023-02-09T19:28:58.360Z,-15.26
2023-02-09T19:31:26.334Z,-15.27
2023-02-09T19:33:57.937Z,-15.30
2023-02-09T19:36:28.125Z,-15.28
2023-02-09T19:38:56.503Z,-15.35
2023-02-09T19:41:25.822Z,-15.36
2023-02-09T19:43:57.568Z,-15.43
2023-02-09T19:46:26.030Z,-15.41
2023-02-09T19:48:56.414Z,-15.36
2023-02-09T19:51:24.353Z,-15.33
2023-02-09T19:53:52.146Z,-15.29
2023-02-09T19:56:23.931Z,-15.27
2023-02-09T19:58:51.824Z,-15.24
2023-02-09T20:01:19.901Z,-15.21
2023-02-09T20:03:49.811Z,-15.18
2023-02-09T20:06:17.655Z,-15.14
2023-02-09T20:08:45.495Z,-15.08
2023-02-09T20:11:17.092Z,-15.02
2023-02-09T20:13:44.961Z,-14.94
2023-02-09T20:16:14.940Z,-14.85
2023-02-09T20:18:43.972Z,-14.74
2023-02-09T20:21:12.489Z,-14.64
2023-02-09T20:23:40.289Z,-14.57
2023-02-09T20:26:12.752Z,-14.47
2023-02-09T20:28:40.759Z,-14.46
2023-02-09T20:31:08.668Z,-14.45
2023-02-09T20:33:37.331Z,-14.43
2023-02-09T20:36:07.190Z,-14.41
2023-02-09T20:38:35.450Z,-14.40
2023-02-09T20:41:03.233Z,-14.38
2023-02-09T20:43:49.251Z,-14.33
2023-02-09T20:46:56.404Z,-14.33
2023-02-09T20:49:26.338Z,-14.37
2023-02-09T20:51:54.062Z,-14.37
2023-02-09T20:54:21.925Z,-14.35
2023-02-09T20:56:49.750Z,-14.37
2023-02-09T20:59:17.851Z,-14.31
2023-02-09T21:01:46.290Z,-14.32
2023-02-09T21:04:14.152Z,-14.34
2023-02-09T21:06:41.968Z,-14.35
2023-02-09T21:09:11.557Z,-14.37
2023-02-09T21:11:39.616Z,-14.41
2023-02-09T21:14:07.593Z,-14.46
2023-02-09T21:16:38.530Z,-14.54
2023-02-09T21:19:06.358Z,-14.56
2023-02-09T21:21:34.183Z,-14.59
2023-02-09T21:24:01.951Z,-14.62
2023-02-09T21:26:30.459Z,-14.69
2023-02-09T21:28:58.407Z,-14.76
2023-02-09T21:31:27.675Z,-14.80
2023-02-09T21:33:55.534Z,-14.84
2023-02-09T21:36:23.186Z,-14.89
2023-02-09T21:38:50.944Z,-14.98
2023-02-09T21:41:38.863Z,-15.10
2023-02-09T21:44:07.134Z,-15.19
2023-02-09T21:46:34.928Z,-15.24
2023-02-09T21:49:02.892Z,-15.27
2023-02-09T21:51:30.659Z,-15.31
2023-02-09T21:53:58.398Z,-15.34
2023-02-09T21:56:26.701Z,-15.43
2023-02-09T21:58:54.761Z,-15.49
2023-02-09T22:01:22.699Z,-15.56
2023-02-09T22:03:57.468Z,-15.62
2023-02-09T22:06:26.061Z,-15.68
2023-02-09T22:08:54.109Z,-15.73
2023-02-09T22:11:22.920Z,-15.79
2023-02-09T22:13:50.748Z,-15.85
2023-02-09T22:16:20.385Z,-15.89
2023-02-09T22:18:48.185Z,-15.89
2023-02-09T22:21:16.167Z,-15.85
2023-02-09T22:23:44.126Z,-15.88
2023-02-09T22:26:14.223Z,-15.90
2023-02-09T22:28:42.251Z,-15.87
2023-02-09T22:31:14.703Z,-15.84
2023-02-09T22:33:42.608Z,-15.82
2023-02-09T22:36:13.166Z,-15.75
2023-02-09T22:38:41.287Z,-15.65
2023-02-09T22:41:21.916Z,-15.55
2023-02-09T22:44:02.951Z,-15.45
2023-02-09T22:46:35.537Z,-15.38
2023-02-09T22:49:08.397Z,-15.31
2023-02-09T22:51:36.496Z,-15.22
2023-02-09T22:54:04.751Z,-15.11
2023-02-09T22:56:32.845Z,-14.98
2023-02-09T22:59:01.106Z,-14.86
2023-02-09T23:01:29.108Z,-14.73
2023-02-09T23:03:57.341Z,-14.63
2023-02-09T23:06:27.531Z,-14.50
2023-02-09T23:08:56.763Z,-14.40
2023-02-09T23:11:25.673Z,-14.33
2023-02-09T23:14:08.397Z,-14.29
2023-02-09T23:16:38.084Z,-14.30
2023-02-09T23:19:07.361Z,-14.33
2023-02-09T23:21:37.582Z,-14.37
2023-02-09T23:24:05.580Z,-14.42
2023-02-09T23:26:33.616Z,-14.44
2023-02-09T23:29:03.136Z,-14.49
2023-02-09T23:31:31.276Z,-14.55
2023-02-09T23:33:59.060Z,-14.56
2023-02-09T23:36:28.811Z,-14.62
2023-02-09T23:38:58.841Z,-14.62
2023-02-09T23:41:26.710Z,-14.65
2023-02-09T23:43:54.785Z,-14.71
2023-02-09T23:46:25.165Z,-14.77
2023-02-09T23:48:54.981Z,-14.76
2023-02-09T23:51:27.005Z,-14.82
2023-02-09T23:53:55.270Z,-14.85
2023-02-09T23:56:23.665Z,-14.90
2023-02-09T23:58:52.192Z,-14.95
